FQMA/MPM METAR and TAF weather

Enter ICAO airport designator
Station Type Date Time Source
FQMA METAR 2020/06/05 10:00 UTC NOAA

FQMA 051000Z 14008KT 9999 SCT020 26/13 Q1024 NOSIG


Station Type Date Time Source
FQMA Decoded METAR 2020/06/05 10:00 UTC NOAA

Maputo / Mavalane, Mozambique (FQMA) 25-55S 032-34E 44M
Jun 05, 2020 - 06:00 AM EDT / 2020.06.05 1000 UTC
Wind: from the SE (140 degrees) at 9 MPH (8 KT):0
Visibility: greater than 7 mile(s):0
Sky conditions: partly cloudy
Temperature: 78 F (26 C)
Dew Point: 55 F (13 C)
Relative Humidity: 44%
Pressure (altimeter): 30.24 in. Hg (1024 hPa)
ob: FQMA 051000Z 14008KT 9999 SCT020 26/13 Q1024 NOSIG
cycle: 10

Station Type Date Time Source
FQMA TAF 2020/06/05 12:12 UTC NOAA

TAF FQMA 051000Z 0512/0618 16010KT 9999 SCT020 TX26/0513Z TN15/0603Z
BECMG 0519/0521 23008KT
BECMG 0610/0612 17010KT FEW025

Example: see airport list